Time;durP1;ratioP1;P1;durP2;ratioP2;P2;SDS_P1;SDS_P2;PMS_P1;PMS_P2;Temp;Humidity;BMP_temperature;BMP_pressure;BME280_temperature;BME280_humidity;BME280_pressure;Samples;Min_cycle;Max_cycle;Signal;HPM_P1;HPM_P2
2023/04/19 00:01:27;;;;;;;6.00;4.28;;;8.70;99.90;;;;;;4995897;28;20046;-85
2023/04/19 00:03:53;;;;;;;5.50;4.03;;;8.80;99.90;;;;;;4996538;28;20057;-85
2023/04/19 00:06:20;;;;;;;7.38;4.45;;;8.70;99.90;;;;;;4996672;28;20058;-86
2023/04/19 00:08:45;;;;;;;7.05;4.43;;;8.60;99.90;;;;;;4996243;28;20503;-84
2023/04/19 00:11:11;;;;;;;7.90;4.70;;;8.60;99.90;;;;;;4978880;28;20046;-85
2023/04/19 00:13:37;;;;;;;6.78;4.25;;;8.60;99.90;;;;;;4996271;28;20054;-85
2023/04/19 00:16:04;;;;;;;7.28;4.50;;;8.60;99.90;;;;;;4978504;28;20476;-84
2023/04/19 00:18:29;;;;;;;7.07;4.70;;;8.50;99.90;;;;;;4995608;28;20050;-84
2023/04/19 00:20:55;;;;;;;7.15;4.43;;;8.50;99.90;;;;;;4978591;28;20060;-85
2023/04/19 00:23:21;;;;;;;7.63;5.25;;;8.50;99.90;;;;;;4977958;28;20092;-85
2023/04/19 00:25:48;;;;;;;7.05;5.07;;;8.50;99.90;;;;;;4978668;28;20050;-85
2023/04/19 00:28:14;;;;;;;8.13;5.00;;;8.50;99.90;;;;;;4995538;28;20485;-85
2023/04/19 00:30:39;;;;;;;5.32;4.45;;;8.50;99.90;;;;;;4979061;28;20054;-82
2023/04/19 00:33:11;;;;;;;7.13;5.18;;;8.50;99.90;;;;;;4962240;28;20050;-85
2023/04/19 00:35:39;;;;;;;6.53;4.65;;;8.50;99.90;;;;;;4996135;28;20388;-84
2023/04/19 00:38:05;;;;;;;8.45;5.05;;;8.50;99.90;;;;;;4995463;28;20046;-84
2023/04/19 00:40:31;;;;;;;8.57;5.57;;;8.40;99.90;;;;;;4995561;28;20046;-84
2023/04/19 00:42:57;;;;;;;8.75;5.38;;;8.40;99.90;;;;;;4978182;28;20050;-84
2023/04/19 00:45:22;;;;;;;9.07;5.43;;;8.40;99.90;;;;;;4978601;28;20057;-84
2023/04/19 00:47:48;;;;;;;6.57;5.38;;;8.40;99.90;;;;;;4978526;28;20074;-84
2023/04/19 00:50:14;;;;;;;7.13;5.28;;;8.30;99.90;;;;;;4995337;28;20044;-84
2023/04/19 00:52:40;;;;;;;7.53;5.40;;;8.30;99.90;;;;;;4995542;28;20049;-85
2023/04/19 00:55:07;;;;;;;7.68;5.45;;;8.40;99.90;;;;;;4977743;28;20054;-84
2023/04/19 00:57:33;;;;;;;8.93;5.47;;;8.20;99.90;;;;;;4995170;28;20054;-85
2023/04/19 00:59:59;;;;;;;8.45;6.32;;;8.20;99.90;;;;;;4961827;28;20054;-85
2023/04/19 01:02:24;;;;;;;11.15;6.47;;;8.10;99.90;;;;;;4995383;28;20205;-84
2023/04/19 01:04:50;;;;;;;9.95;6.18;;;8.10;99.90;;;;;;4977599;28;20074;-80
2023/04/19 01:07:18;;;;;;;10.20;6.05;;;8.10;99.90;;;;;;4977463;28;20105;-80
2023/04/19 01:09:44;;;;;;;9.13;6.30;;;8.10;99.90;;;;;;4978176;28;20404;-81
2023/04/19 01:12:10;;;;;;;9.93;6.80;;;8.10;99.90;;;;;;4994991;28;20058;-81
2023/04/19 01:14:36;;;;;;;9.23;6.13;;;8.00;99.90;;;;;;4977852;28;20051;-80
2023/04/19 01:17:02;;;;;;;9.50;6.47;;;8.00;99.90;;;;;;4994847;28;20133;-80
2023/04/19 01:19:27;;;;;;;10.82;6.47;;;8.00;99.90;;;;;;4994673;28;20108;-80
2023/04/19 01:21:55;;;;;;;10.27;6.30;;;7.90;99.90;;;;;;4995306;28;20432;-79
2023/04/19 01:24:21;;;;;;;9.02;6.50;;;7.90;99.90;;;;;;4995595;28;20062;-80
2023/04/19 01:26:46;;;;;;;10.57;6.28;;;7.90;99.90;;;;;;4995469;28;20411;-80
2023/04/19 01:29:12;;;;;;;11.02;6.65;;;7.90;99.90;;;;;;4995671;28;20042;-80
2023/04/19 01:31:38;;;;;;;9.55;6.90;;;7.80;99.90;;;;;;4994847;28;20494;-81
2023/04/19 01:34:04;;;;;;;9.40;6.78;;;7.80;99.90;;;;;;4995110;28;20166;-80
2023/04/19 01:36:30;;;;;;;9.25;5.97;;;7.80;99.90;;;;;;4994146;28;20507;-81
2023/04/19 01:38:57;;;;;;;9.40;6.60;;;7.70;99.90;;;;;;4994378;28;20043;-81
2023/04/19 01:41:25;;;;;;;8.75;6.32;;;7.70;99.90;;;;;;4994379;28;20397;-81
2023/04/19 01:43:52;;;;;;;8.88;6.53;;;7.70;99.90;;;;;;4994333;28;20050;-81
2023/04/19 01:46:17;;;;;;;9.63;6.78;;;7.70;99.90;;;;;;4978081;28;20082;-80
2023/04/19 01:48:43;;;;;;;10.48;6.95;;;7.90;99.90;;;;;;4960808;28;20515;-80
2023/04/19 01:51:09;;;;;;;9.32;6.47;;;7.70;99.90;;;;;;4976915;28;20050;-80
2023/04/19 01:53:34;;;;;;;10.98;6.88;;;7.60;99.90;;;;;;4994280;28;20050;-81
2023/04/19 01:56:00;;;;;;;9.38;7.00;;;7.60;99.90;;;;;;4994291;28;20046;-81
2023/04/19 01:58:25;;;;;;;9.38;6.45;;;7.70;99.90;;;;;;4994142;28;20050;-80
2023/04/19 02:00:51;;;;;;;9.23;6.53;;;7.60;99.90;;;;;;4994157;28;20042;-81
2023/04/19 02:03:17;;;;;;;11.18;6.47;;;7.60;99.90;;;;;;4994180;28;20053;-80
2023/04/19 02:05:42;;;;;;;10.27;6.40;;;7.70;99.90;;;;;;4994401;28;20468;-80
2023/04/19 02:08:08;;;;;;;6.55;5.53;;;7.50;99.90;;;;;;4994089;28;20070;-80
2023/04/19 02:10:34;;;;;;;8.45;5.90;;;7.40;99.90;;;;;;4993775;28;20042;-80
2023/04/19 02:13:00;;;;;;;9.98;6.28;;;7.50;99.90;;;;;;4994043;28;20404;-79
2023/04/19 02:15:26;;;;;;;8.93;5.88;;;7.50;99.90;;;;;;4994037;28;20051;-80
2023/04/19 02:17:51;;;;;;;6.15;4.75;;;7.40;99.90;;;;;;4977200;28;20053;-81
2023/04/19 02:20:17;;;;;;;7.85;5.22;;;7.40;99.90;;;;;;4995027;28;20456;-80
2023/04/19 02:22:43;;;;;;;9.13;5.40;;;7.40;99.90;;;;;;4994799;28;20108;-80
2023/04/19 02:25:09;;;;;;;7.72;4.80;;;7.40;99.90;;;;;;4994837;28;20400;-80
2023/04/19 02:27:35;;;;;;;8.38;4.97;;;7.30;99.90;;;;;;4978924;28;20058;-79
2023/04/19 02:30:00;;;;;;;7.72;5.00;;;7.30;99.90;;;;;;4994957;28;20049;-80
2023/04/19 02:32:26;;;;;;;6.18;3.92;;;7.30;99.90;;;;;;4976602;28;20068;-78
2023/04/19 02:34:52;;;;;;;7.43;4.60;;;7.30;99.90;;;;;;4993801;28;20046;-80
2023/04/19 02:37:17;;;;;;;7.15;4.40;;;7.20;99.90;;;;;;4993702;28;20046;-79
2023/04/19 02:39:44;;;;;;;6.38;4.47;;;8.30;99.90;;;;;;4993748;28;20043;-79
2023/04/19 02:42:10;;;;;;;7.63;4.75;;;7.50;99.90;;;;;;4976581;28;20065;-79
2023/04/19 02:44:36;;;;;;;8.43;4.85;;;7.20;99.90;;;;;;4993786;28;20117;-79
2023/04/19 02:47:02;;;;;;;6.40;4.50;;;7.20;99.90;;;;;;4978855;28;20125;-79
2023/04/19 02:49:33;;;;;;;8.20;4.85;;;7.20;99.90;;;;;;4997438;28;20152;-80
2023/04/19 02:51:59;;;;;;;8.93;5.32;;;7.20;99.90;;;;;;4998273;28;20392;-79
2023/04/19 02:54:24;;;;;;;7.47;5.20;;;7.10;99.90;;;;;;4997632;28;20208;-80
2023/04/19 02:56:50;;;;;;;8.82;4.93;;;7.10;99.90;;;;;;4997369;28;20050;-80
2023/04/19 02:59:16;;;;;;;7.07;4.90;;;7.10;99.90;;;;;;4997354;28;20347;-79
2023/04/19 03:01:41;;;;;;;6.78;4.90;;;7.10;99.90;;;;;;4997363;28;20052;-80
2023/04/19 03:04:07;;;;;;;7.68;4.95;;;7.00;99.90;;;;;;4997785;28;20108;-79
2023/04/19 03:06:33;;;;;;;7.50;5.35;;;7.00;99.90;;;;;;4997840;28;20400;-79
2023/04/19 03:08:58;;;;;;;7.78;5.03;;;7.10;99.90;;;;;;4979797;28;20105;-80
2023/04/19 03:11:24;;;;;;;7.30;4.93;;;7.00;99.90;;;;;;4997219;28;20042;-80
2023/04/19 03:13:50;;;;;;;7.63;4.90;;;6.90;99.90;;;;;;4998099;28;20050;-80
2023/04/19 03:16:16;;;;;;;7.55;4.97;;;6.90;99.90;;;;;;4997597;28;20476;-79
2023/04/19 03:18:41;;;;;;;9.05;4.95;;;6.80;99.90;;;;;;4979804;28;20094;-80
2023/04/19 03:21:08;;;;;;;7.82;4.70;;;6.80;99.90;;;;;;4997634;28;20050;-79
2023/04/19 03:23:34;;;;;;;9.45;5.50;;;6.90;99.90;;;;;;4979783;28;20046;-79
2023/04/19 03:25:59;;;;;;;7.18;4.78;;;6.90;99.90;;;;;;4979734;28;20137;-79
2023/04/19 03:28:25;;;;;;;7.20;4.65;;;6.70;99.90;;;;;;4997700;28;20089;-79
2023/04/19 03:30:51;;;;;;;7.00;4.90;;;6.80;99.90;;;;;;4996829;28;20441;-80
2023/04/19 03:33:17;;;;;;;7.15;4.97;;;6.70;99.90;;;;;;4996713;28;20488;-80
2023/04/19 03:35:43;;;;;;;8.82;4.93;;;6.70;99.90;;;;;;4996817;28;20085;-80
2023/04/19 03:38:09;;;;;;;7.00;4.97;;;6.60;99.90;;;;;;4996905;28;20070;-79
2023/04/19 03:40:37;;;;;;;6.10;4.97;;;6.60;99.90;;;;;;4997170;28;20046;-80
2023/04/19 03:43:02;;;;;;;10.60;4.85;;;6.50;99.90;;;;;;4996599;28;20038;-79
2023/04/19 03:45:29;;;;;;;6.72;4.95;;;6.70;99.90;;;;;;4979279;28;20050;-79
2023/04/19 03:47:54;;;;;;;7.20;4.80;;;6.60;99.90;;;;;;4996739;28;20042;-80
2023/04/19 03:50:20;;;;;;;7.65;4.65;;;6.60;99.90;;;;;;4996902;28;20485;-80
2023/04/19 03:52:46;;;;;;;6.03;4.70;;;6.40;99.90;;;;;;4997671;28;20049;-79
2023/04/19 03:55:12;;;;;;;6.93;4.78;;;6.30;99.90;;;;;;4980286;28;20048;-79
2023/04/19 03:57:38;;;;;;;7.13;4.70;;;6.60;99.90;;;;;;4978591;28;20054;-80
2023/04/19 04:00:07;;;;;;;8.77;5.00;;;6.40;99.90;;;;;;4996167;28;20042;-79
2023/04/19 04:02:36;;;;;;;8.45;5.75;;;6.30;99.90;;;;;;4996237;28;20042;-80
2023/04/19 04:05:02;;;;;;;9.38;5.47;;;6.30;99.90;;;;;;4996249;28;20050;-80
2023/04/19 04:07:28;;;;;;;6.45;4.53;;;6.30;99.90;;;;;;4979043;28;20042;-79
2023/04/19 04:09:54;;;;;;;11.20;4.97;;;6.40;99.90;;;;;;4996075;28;20554;-80
2023/04/19 04:12:20;;;;;;;8.30;5.00;;;6.50;99.90;;;;;;4978669;28;20107;-81
2023/04/19 04:14:45;;;;;;;8.68;5.40;;;6.30;99.90;;;;;;4996532;28;20050;-81
2023/04/19 04:17:11;;;;;;;7.13;5.25;;;6.20;99.90;;;;;;4995845;28;20038;-81
2023/04/19 04:19:37;;;;;;;6.18;4.88;;;6.20;99.90;;;;;;4978686;28;20141;-80
2023/04/19 04:22:03;;;;;;;6.75;4.40;;;6.10;99.90;;;;;;4995913;28;20050;-81
2023/04/19 04:24:31;;;;;;;6.95;5.00;;;6.10;99.90;;;;;;4996397;28;20448;-81
2023/04/19 04:26:59;;;;;;;6.80;4.55;;;6.10;99.90;;;;;;4996028;28;20496;-81
2023/04/19 04:29:25;;;;;;;7.72;5.15;;;6.00;99.90;;;;;;4996279;28;20082;-80
2023/04/19 04:31:51;;;;;;;7.25;4.50;;;6.10;99.90;;;;;;4995736;28;20042;-81
2023/04/19 04:34:17;;;;;;;7.57;4.30;;;6.20;99.90;;;;;;4978421;28;20048;-81
2023/04/19 04:36:43;;;;;;;7.35;4.15;;;6.10;99.90;;;;;;4995201;28;20046;-81
2023/04/19 04:39:10;;;;;;;8.38;4.53;;;6.00;99.90;;;;;;4995582;28;20042;-80
2023/04/19 04:41:40;;;;;;;7.13;4.00;;;6.00;99.90;;;;;;4997014;28;20050;-82
2023/04/19 04:44:07;;;;;;;7.32;3.95;;;6.00;99.90;;;;;;4995981;28;20457;-80
2023/04/19 04:46:34;;;;;;;5.22;3.83;;;6.30;99.90;;;;;;4995527;28;20049;-80
2023/04/19 04:48:59;;;;;;;5.40;3.83;;;6.00;99.90;;;;;;4995320;28;20096;-80
2023/04/19 04:51:26;;;;;;;6.60;3.92;;;6.00;99.90;;;;;;4995321;28;20046;-80
2023/04/19 04:53:51;;;;;;;7.18;4.53;;;6.00;99.90;;;;;;4995243;28;20042;-81
2023/04/19 04:56:17;;;;;;;7.05;3.90;;;6.10;99.90;;;;;;4977897;28;20068;-81
2023/04/19 04:58:43;;;;;;;6.80;4.18;;;6.00;99.90;;;;;;4995390;28;20101;-81
2023/04/19 05:01:09;;;;;;;5.40;3.55;;;5.90;99.90;;;;;;4995146;28;20137;-81
2023/04/19 05:03:34;;;;;;;5.10;3.50;;;5.90;99.90;;;;;;4995091;28;20133;-81
2023/04/19 05:06:00;;;;;;;5.60;3.92;;;6.00;99.90;;;;;;4977940;28;20404;-82
2023/04/19 05:08:26;;;;;;;6.10;3.63;;;5.90;99.90;;;;;;4994992;28;20145;-81
2023/04/19 05:10:52;;;;;;;6.80;3.88;;;6.10;99.90;;;;;;4961230;28;20054;-81
2023/04/19 05:13:18;;;;;;;5.35;4.15;;;6.00;99.90;;;;;;4994835;28;20046;-81
2023/04/19 05:15:43;;;;;;;5.65;3.55;;;6.30;99.90;;;;;;4978196;28;20089;-82
2023/04/19 05:18:09;;;;;;;4.82;3.28;;;6.00;99.90;;;;;;4994757;28;20042;-82
2023/04/19 05:20:35;;;;;;;5.95;3.47;;;6.10;99.90;;;;;;4994509;28;20062;-82
2023/04/19 05:23:02;;;;;;;5.65;3.10;;;6.40;99.90;;;;;;4994751;28;20056;-82
2023/04/19 05:25:28;;;;;;;5.18;3.50;;;6.00;99.90;;;;;;4994694;28;20050;-82
2023/04/19 05:27:54;;;;;;;6.45;3.83;;;6.10;99.90;;;;;;4977293;28;20035;-81
2023/04/19 05:30:20;;;;;;;5.43;3.38;;;6.40;99.90;;;;;;4977426;28;20069;-81
2023/04/19 05:32:46;;;;;;;4.57;3.05;;;6.00;99.90;;;;;;4977665;28;20108;-82
2023/04/19 05:35:11;;;;;;;5.97;3.05;;;6.50;99.90;;;;;;4994466;28;20133;-82
2023/04/19 05:37:38;;;;;;;5.03;3.08;;;6.10;99.90;;;;;;4977865;28;20088;-82
2023/04/19 05:40:05;;;;;;;5.00;2.60;;;6.30;99.90;;;;;;4960882;28;20050;-82
2023/04/19 05:42:31;;;;;;;4.80;3.00;;;6.10;99.90;;;;;;4977253;28;20503;-81
2023/04/19 05:44:56;;;;;;;4.03;2.67;;;6.20;99.90;;;;;;4977463;28;20050;-80
2023/04/19 05:47:22;;;;;;;5.32;3.38;;;6.30;99.90;;;;;;4994383;28;20046;-82
2023/04/19 05:49:48;;;;;;;5.50;2.72;;;6.20;99.90;;;;;;4995004;28;20093;-82
2023/04/19 05:52:13;;;;;;;4.78;2.80;;;6.20;99.90;;;;;;4994319;28;20480;-81
2023/04/19 05:54:39;;;;;;;5.93;3.38;;;6.50;99.90;;;;;;4994894;28;20107;-81
2023/04/19 05:57:05;;;;;;;4.00;3.25;;;6.30;99.90;;;;;;4994166;28;20054;-80
2023/04/19 05:59:31;;;;;;;6.07;3.22;;;6.40;99.90;;;;;;4994216;28;20108;-81
2023/04/19 06:01:59;;;;;;;4.38;2.83;;;6.40;99.90;;;;;;4976876;28;20129;-81
2023/04/19 06:04:25;;;;;;;6.75;2.70;;;6.50;99.90;;;;;;4977012;28;20549;-80
2023/04/19 06:06:51;;;;;;;5.47;2.75;;;6.40;99.90;;;;;;4994152;28;20174;-80
2023/04/19 06:09:17;;;;;;;3.55;2.40;;;6.50;99.90;;;;;;4994342;28;20093;-78
2023/04/19 06:11:44;;;;;;;4.97;2.40;;;6.40;99.90;;;;;;4994174;28;20507;-77
2023/04/19 06:14:12;;;;;;;4.97;2.90;;;6.50;99.90;;;;;;4976726;28;20050;-77
2023/04/19 06:16:38;;;;;;;4.78;2.85;;;6.40;99.90;;;;;;4994395;28;20183;-78
2023/04/19 06:19:04;;;;;;;4.55;2.15;;;6.70;99.90;;;;;;4995510;28;20129;-78
2023/04/19 06:21:30;;;;;;;5.35;2.08;;;6.70;99.90;;;;;;4995035;28;20074;-78
2023/04/19 06:23:56;;;;;;;4.38;2.28;;;6.60;99.90;;;;;;4997990;28;20054;-77
2023/04/19 06:26:22;;;;;;;5.13;2.33;;;6.70;99.90;;;;;;4997971;28;20056;-77
2023/04/19 06:28:47;;;;;;;4.50;2.08;;;6.70;99.90;;;;;;4997624;28;20054;-78
2023/04/19 06:31:13;;;;;;;3.42;1.67;;;6.90;99.90;;;;;;4997841;28;20054;-77
2023/04/19 06:33:39;;;;;;;4.50;2.45;;;6.70;99.90;;;;;;4997864;28;20393;-77
2023/04/19 06:36:05;;;;;;;2.90;1.98;;;6.80;99.90;;;;;;4997432;28;20141;-78
2023/04/19 06:38:31;;;;;;;4.20;2.13;;;6.90;99.90;;;;;;4997925;28;20049;-77
2023/04/19 06:40:56;;;;;;;4.05;2.38;;;6.90;99.90;;;;;;4997691;28;20062;-77
2023/04/19 06:43:23;;;;;;;5.22;2.33;;;7.00;99.90;;;;;;4981267;28;20046;-78
2023/04/19 06:45:56;;;;;;;4.88;2.30;;;7.00;99.90;;;;;;4998198;28;20058;-79
2023/04/19 06:48:21;;;;;;;5.15;2.55;;;7.10;99.90;;;;;;4997584;28;20053;-79
2023/04/19 06:50:47;;;;;;;4.90;2.15;;;7.20;99.90;;;;;;4998374;28;20047;-78
2023/04/19 06:53:13;;;;;;;4.07;2.15;;;7.20;99.90;;;;;;4997432;28;20125;-79
2023/04/19 06:55:38;;;;;;;3.97;2.55;;;7.20;99.90;;;;;;4997709;28;20043;-77
2023/04/19 06:58:06;;;;;;;3.38;2.25;;;7.40;99.90;;;;;;4980280;28;20133;-78
2023/04/19 07:00:32;;;;;;;6.38;2.60;;;7.30;99.90;;;;;;4997329;28;20381;-78
2023/04/19 07:02:59;;;;;;;4.75;2.20;;;7.40;99.90;;;;;;4980407;28;20188;-80
2023/04/19 07:05:24;;;;;;;6.15;2.80;;;7.40;99.90;;;;;;4997493;28;20065;-80
2023/04/19 07:07:50;;;;;;;4.80;2.80;;;7.40;99.90;;;;;;4997405;28;20046;-78
2023/04/19 07:10:16;;;;;;;3.75;2.28;;;7.50;99.90;;;;;;4980133;28;20038;-79
2023/04/19 07:12:42;;;;;;;3.28;2.10;;;7.60;99.90;;;;;;4997785;28;20089;-79
2023/04/19 07:15:08;;;;;;;4.43;2.13;;;7.70;99.90;;;;;;4980850;28;20051;-78
2023/04/19 07:17:35;;;;;;;2.83;1.60;;;7.60;99.90;;;;;;4997147;28;20043;-80
2023/04/19 07:20:02;;;;;;;5.18;2.00;;;7.70;99.90;;;;;;4976150;28;20117;-79
2023/04/19 07:22:28;;;;;;;2.70;2.00;;;7.70;99.90;;;;;;4978216;28;20054;-78
2023/04/19 07:24:54;;;;;;;3.92;1.50;;;7.80;99.90;;;;;;4978303;28;20043;-79
2023/04/19 07:27:20;;;;;;;2.40;1.38;;;8.10;99.90;;;;;;4977426;28;20069;-78
2023/04/19 07:29:45;;;;;;;1.83;1.50;;;7.90;99.90;;;;;;4977363;28;20057;-76
2023/04/19 07:32:12;;;;;;;2.42;1.70;;;8.00;99.90;;;;;;4977141;28;20125;-78
2023/04/19 07:34:40;;;;;;;6.28;2.40;;;8.00;99.90;;;;;;4977306;28;20152;-77
2023/04/19 07:37:06;;;;;;;2.10;1.10;;;8.10;99.90;;;;;;4977021;28;20049;-78
2023/04/19 07:39:32;;;;;;;2.22;1.13;;;8.20;99.90;;;;;;4977302;28;20057;-75
2023/04/19 07:41:58;;;;;;;2.05;1.20;;;8.30;99.90;;;;;;4977302;28;20047;-74
2023/04/19 07:44:24;;;;;;;2.33;1.40;;;8.30;99.90;;;;;;4977292;28;20087;-75
2023/04/19 07:46:50;;;;;;;2.90;1.30;;;8.40;99.90;;;;;;4977494;28;20047;-76
2023/04/19 07:49:16;;;;;;;2.85;1.02;;;8.50;99.90;;;;;;4977493;28;20090;-74
2023/04/19 07:51:41;;;;;;;3.72;1.20;;;8.50;99.90;;;;;;4976135;28;20050;-72
2023/04/19 07:54:07;;;;;;;2.00;0.98;;;8.60;99.90;;;;;;4977073;28;20051;-73
2023/04/19 07:56:33;;;;;;;2.03;0.93;;;8.60;99.90;;;;;;4976961;28;20516;-72
2023/04/19 07:58:59;;;;;;;1.77;0.98;;;8.70;99.90;;;;;;4976905;28;20130;-72
2023/04/19 08:01:25;;;;;;;2.17;1.10;;;8.80;99.90;;;;;;4975907;28;20051;-75
2023/04/19 08:03:50;;;;;;;1.63;1.23;;;8.80;99.90;;;;;;4977722;28;20054;-76
2023/04/19 08:06:20;;;;;;;1.20;0.90;;;9.00;99.90;;;;;;4976027;28;20130;-74
2023/04/19 08:08:46;;;;;;;1.75;0.80;;;9.00;99.90;;;;;;4976744;28;20043;-76
2023/04/19 08:11:12;;;;;;;1.20;0.90;;;9.00;99.90;;;;;;4978386;28;20050;-77
2023/04/19 08:13:38;;;;;;;1.73;1.13;;;9.10;99.90;;;;;;4977711;28;20495;-77
2023/04/19 08:16:04;;;;;;;1.70;0.90;;;9.20;99.90;;;;;;4977181;28;20489;-79
2023/04/19 08:18:30;;;;;;;1.70;0.80;;;9.20;99.90;;;;;;4976642;28;20043;-78
2023/04/19 08:20:56;;;;;;;2.85;0.77;;;9.30;99.90;;;;;;4975721;28;20362;-79
2023/04/19 08:23:21;;;;;;;3.15;0.90;;;9.30;99.90;;;;;;4976615;28;20057;-81
2023/04/19 08:25:47;;;;;;;1.80;0.95;;;9.30;99.90;;;;;;4976588;28;20047;-80
2023/04/19 08:28:13;;;;;;;1.13;0.70;;;9.40;99.90;;;;;;4976869;28;20159;-81
2023/04/19 08:30:39;;;;;;;1.25;0.90;;;9.50;99.90;;;;;;4977043;28;20047;-82
2023/04/19 08:33:05;;;;;;;1.10;0.90;;;9.50;99.90;;;;;;4976347;28;20054;-80
2023/04/19 08:35:33;;;;;;;1.40;0.80;;;9.60;99.90;;;;;;4976394;28;20054;-81
2023/04/19 08:37:58;;;;;;;0.93;0.70;;;9.60;99.90;;;;;;4976148;28;20043;-81
2023/04/19 08:40:24;;;;;;;1.00;0.80;;;9.60;99.90;;;;;;4975979;28;20053;-80
2023/04/19 08:42:50;;;;;;;2.10;0.73;;;9.70;99.90;;;;;;4974981;28;20058;-80
2023/04/19 08:45:16;;;;;;;2.88;0.80;;;9.80;99.90;;;;;;4975520;28;20069;-82
2023/04/19 08:47:42;;;;;;;0.98;0.68;;;9.90;99.90;;;;;;4976673;28;20101;-81
2023/04/19 08:50:08;;;;;;;1.80;0.88;;;10.00;99.90;;;;;;4975303;28;20046;-80
2023/04/19 08:52:36;;;;;;;1.92;0.90;;;10.10;99.90;;;;;;4976220;28;20560;-83
2023/04/19 08:55:06;;;;;;;1.13;0.70;;;10.10;99.90;;;;;;4976497;28;20362;-82
2023/04/19 08:57:34;;;;;;;1.52;0.70;;;10.20;99.90;;;;;;4975807;28;20054;-83
2023/04/19 09:00:04;;;;;;;0.93;0.60;;;10.30;99.90;;;;;;4975852;28;20100;-80
2023/04/19 09:02:50;;;;;;;0.85;0.60;;;10.30;99.90;;;;;;4976108;28;20091;-82
2023/04/19 09:05:17;;;;;;;1.88;0.70;;;10.40;99.90;;;;;;4976034;28;20047;-79
2023/04/19 09:07:44;;;;;;;0.88;0.70;;;10.40;99.90;;;;;;4975672;28;20054;-82
2023/04/19 09:10:15;;;;;;;1.02;0.60;;;10.50;99.90;;;;;;4974651;28;20503;-84
2023/04/19 09:12:41;;;;;;;1.80;0.68;;;10.50;99.90;;;;;;4975355;28;20047;-81
2023/04/19 09:15:08;;;;;;;1.42;0.70;;;10.50;99.90;;;;;;4975574;28;20400;-80
2023/04/19 09:17:35;;;;;;;1.42;0.70;;;10.60;99.90;;;;;;4974643;28;20054;-81
2023/04/19 09:20:03;;;;;;;2.97;0.75;;;10.70;99.90;;;;;;4985591;28;20090;-82
2023/04/19 09:22:29;;;;;;;1.17;0.80;;;10.80;99.90;;;;;;4995614;28;20404;-79
2023/04/19 09:24:55;;;;;;;1.52;0.75;;;10.80;99.90;;;;;;4994799;28;20157;-79
2023/04/19 09:27:30;;;;;;;1.00;0.70;;;10.90;99.90;;;;;;4995939;28;20047;-83
2023/04/19 09:29:57;;;;;;;1.58;0.70;;;10.90;99.90;;;;;;4994560;28;20058;-82
2023/04/19 09:32:23;;;;;;;1.77;0.70;;;11.00;99.90;;;;;;4995324;28;20105;-83
2023/04/19 09:34:56;;;;;;;1.13;0.73;;;11.10;99.90;;;;;;4977383;28;20412;-81
2023/04/19 09:37:23;;;;;;;1.60;0.90;;;11.10;99.90;;;;;;4994546;28;20042;-79
2023/04/19 09:39:49;;;;;;;1.52;0.63;;;11.20;99.90;;;;;;4994581;28;20050;-79
2023/04/19 09:42:17;;;;;;;2.17;0.60;;;11.30;99.10;;;;;;4994609;28;20061;-79
2023/04/19 09:44:57;;;;;;;1.52;0.60;;;11.30;97.80;;;;;;4997651;28;20129;-83
2023/04/19 09:47:25;;;;;;;0.93;0.70;;;11.30;98.70;;;;;;4977960;28;20049;-81
2023/04/19 09:50:07;;;;;;;1.73;0.60;;;11.40;98.60;;;;;;4994889;28;20046;-80
2023/04/19 09:52:33;;;;;;;3.00;0.60;;;11.50;98.90;;;;;;4995590;28;20086;-79
2023/04/19 09:55:05;;;;;;;1.50;0.73;;;11.50;98.30;;;;;;4994840;28;20101;-81
2023/04/19 09:57:32;;;;;;;0.85;0.60;;;11.60;98.10;;;;;;4976862;28;20423;-79
2023/04/19 09:59:59;;;;;;;1.20;0.60;;;11.60;98.30;;;;;;4994364;28;20042;-81
2023/04/19 10:02:31;;;;;;;1.63;0.50;;;11.70;98.20;;;;;;4994310;28;20054;-81
2023/04/19 10:04:58;;;;;;;0.50;0.50;;;11.70;97.70;;;;;;4977020;28;20054;-78
2023/04/19 10:07:24;;;;;;;0.82;0.60;;;11.80;95.90;;;;;;4995024;28;20121;-82
2023/04/19 10:09:53;;;;;;;1.58;0.40;;;11.80;95.40;;;;;;4994162;28;20058;-78
2023/04/19 10:12:21;;;;;;;0.80;0.50;;;11.80;95.20;;;;;;4994729;28;20181;-80
2023/04/19 10:14:47;;;;;;;0.80;0.50;;;11.90;94.20;;;;;;4995019;28;20057;-82
2023/04/19 10:17:13;;;;;;;1.67;0.50;;;11.90;94.40;;;;;;4994904;28;20388;-75
2023/04/19 10:19:40;;;;;;;2.65;0.57;;;11.90;93.10;;;;;;4993962;28;20070;-77
2023/04/19 10:22:07;;;;;;;0.65;0.50;;;11.90;93.20;;;;;;4994071;28;20094;-75
2023/04/19 10:24:33;;;;;;;1.50;0.50;;;12.00;93.50;;;;;;4994633;28;20383;-76
2023/04/19 10:27:12;;;;;;;1.10;0.70;;;12.00;93.20;;;;;;4994056;28;20125;-75
2023/04/19 10:29:55;;;;;;;1.17;0.50;;;12.10;92.00;;;;;;4994112;28;20082;-76
2023/04/19 10:32:23;;;;;;;1.48;0.55;;;12.10;93.30;;;;;;4993743;28;20492;-75
2023/04/19 10:34:53;;;;;;;2.53;0.52;;;12.10;93.60;;;;;;4994036;28;20046;-75
2023/04/19 10:37:24;;;;;;;0.98;0.60;;;12.20;93.40;;;;;;4994326;28;20050;-79
2023/04/19 10:39:50;;;;;;;1.23;0.60;;;12.20;92.90;;;;;;4977250;28;20370;-77
2023/04/19 10:42:17;;;;;;;0.90;0.63;;;12.30;92.40;;;;;;4993930;28;20046;-78
2023/04/19 10:45:23;;;;;;;2.45;0.70;;;12.30;92.20;;;;;;4993934;28;20043;-81
2023/04/19 10:47:51;;;;;;;1.58;0.70;;;12.30;92.40;;;;;;4957153;28;20077;-78
2023/04/19 10:50:17;;;;;;;2.25;0.65;;;12.30;92.50;;;;;;4993710;28;20053;-78
2023/04/19 10:52:43;;;;;;;1.42;0.60;;;12.30;92.90;;;;;;4993841;28;20133;-74
2023/04/19 10:55:13;;;;;;;2.72;0.70;;;12.40;93.30;;;;;;4993780;28;20148;-74
2023/04/19 10:58:05;;;;;;;0.93;0.60;;;12.40;93.30;;;;;;4977185;28;20056;-75
2023/04/19 11:00:32;;;;;;;1.75;0.60;;;12.50;92.90;;;;;;4993805;28;20047;-76
2023/04/19 11:03:39;;;;;;;1.45;0.70;;;12.50;91.60;;;;;;4994226;28;20125;-83
2023/04/19 11:06:16;;;;;;;0.70;0.60;;;12.50;91.50;;;;;;4993565;28;20085;-74
2023/04/19 11:08:43;;;;;;;1.10;0.70;;;12.50;90.40;;;;;;4996880;28;20049;-76
2023/04/19 11:11:09;;;;;;;1.52;0.77;;;12.50;89.90;;;;;;4998111;28;20538;-77
2023/04/19 11:13:36;;;;;;;1.58;0.80;;;12.50;90.10;;;;;;4979856;28;20514;-74
2023/04/19 11:16:07;;;;;;;1.70;0.80;;;12.50;90.40;;;;;;4979193;28;20424;-83
2023/04/19 11:18:33;;;;;;;2.50;0.80;;;12.50;89.90;;;;;;4997007;28;20039;-78
2023/04/19 11:21:00;;;;;;;1.73;0.90;;;12.50;90.00;;;;;;4996609;28;20054;-77
2023/04/19 11:23:26;;;;;;;1.92;0.88;;;12.60;90.40;;;;;;4980089;28;20400;-77
2023/04/19 11:25:52;;;;;;;2.97;0.95;;;12.60;90.50;;;;;;4997016;28;20050;-78
2023/04/19 11:28:18;;;;;;;1.15;0.85;;;12.70;90.60;;;;;;4996909;28;20053;-80
2023/04/19 11:30:45;;;;;;;1.67;0.80;;;12.20;90.30;;;;;;4980040;28;20089;-79
2023/04/19 11:33:11;;;;;;;2.65;0.90;;;12.70;88.40;;;;;;4996941;28;20058;-77
2023/04/19 11:35:37;;;;;;;1.60;1.02;;;12.70;89.50;;;;;;4979473;28;20046;-78
2023/04/19 11:38:04;;;;;;;2.97;1.15;;;12.70;90.50;;;;;;4979327;28;20038;-78
2023/04/19 11:40:30;;;;;;;2.30;0.98;;;12.80;90.80;;;;;;4996805;28;20085;-77
2023/04/19 11:43:01;;;;;;;1.45;1.10;;;12.80;90.80;;;;;;4997228;28;20081;-77
2023/04/19 11:45:33;;;;;;;2.47;1.20;;;12.80;91.10;;;;;;4997413;28;20046;-75
2023/04/19 11:47:59;;;;;;;2.28;1.10;;;12.90;91.60;;;;;;4996683;28;20046;-79
2023/04/19 11:50:48;;;;;;;2.95;1.40;;;12.90;91.70;;;;;;4997009;28;20137;-77
2023/04/19 11:53:19;;;;;;;2.13;1.30;;;12.90;91.30;;;;;;4997484;28;20492;-77
2023/04/19 11:55:46;;;;;;;3.33;1.30;;;12.90;91.30;;;;;;4999243;28;20042;-76
2023/04/19 11:58:48;;;;;;;2.83;1.30;;;12.90;91.50;;;;;;4998527;28;20057;-76
2023/04/19 12:01:19;;;;;;;1.83;1.27;;;13.00;91.80;;;;;;4980349;28;20054;-75
2023/04/19 12:03:50;;;;;;;2.10;1.00;;;13.00;91.90;;;;;;4978764;28;20138;-78
2023/04/19 12:06:32;;;;;;;1.75;1.10;;;13.10;92.00;;;;;;4996337;28;20046;-76
2023/04/19 12:08:58;;;;;;;3.40;1.35;;;13.10;91.80;;;;;;4996814;28;20108;-76
2023/04/19 12:11:40;;;;;;;1.65;1.20;;;13.10;91.50;;;;;;4978941;28;20121;-77
2023/04/19 12:14:14;;;;;;;2.78;1.10;;;13.10;91.60;;;;;;4979427;28;20054;-74
2023/04/19 12:16:40;;;;;;;2.10;1.15;;;13.20;91.50;;;;;;4996643;28;20046;-78
2023/04/19 12:19:14;;;;;;;1.55;0.90;;;13.10;91.20;;;;;;4995452;28;20050;-78
2023/04/19 12:21:40;;;;;;;2.83;1.02;;;13.10;91.70;;;;;;4996511;28;20439;-76
2023/04/19 12:24:06;;;;;;;2.25;0.98;;;13.20;92.10;;;;;;4996492;28;20073;-82
2023/04/19 12:26:32;;;;;;;1.35;0.90;;;13.20;91.80;;;;;;4995976;28;20046;-78
2023/04/19 12:29:00;;;;;;;1.88;0.80;;;13.20;91.30;;;;;;4978759;28;20530;-73
2023/04/19 12:31:26;;;;;;;1.10;0.82;;;13.20;89.50;;;;;;4996139;28;20109;-81
2023/04/19 12:33:52;;;;;;;1.83;1.00;;;13.20;90.10;;;;;;4995782;28;20058;-78
2023/04/19 12:36:18;;;;;;;1.38;0.90;;;13.20;90.10;;;;;;4978591;28;20054;-77
2023/04/19 12:38:44;;;;;;;1.75;0.90;;;13.20;90.00;;;;;;4995738;28;20049;-80
2023/04/19 12:41:10;;;;;;;2.53;1.08;;;13.30;89.90;;;;;;4978323;28;20400;-75
2023/04/19 12:43:36;;;;;;;2.20;1.00;;;13.30;89.30;;;;;;4995627;28;20183;-84
2023/04/19 12:46:01;;;;;;;1.30;0.90;;;13.30;89.40;;;;;;4997032;28;20042;-76
2023/04/19 12:48:27;;;;;;;2.70;0.90;;;13.30;88.50;;;;;;4997441;28;20043;-75
2023/04/19 12:50:53;;;;;;;2.50;0.80;;;13.30;88.90;;;;;;4995726;28;20038;-76
2023/04/19 12:53:21;;;;;;;2.78;0.93;;;13.30;90.00;;;;;;4995711;28;20057;-74